Time,TemperatureF,DewpointF,PressureIn,WindDirection,WindDirectionDegrees,WindSpeedMPH,WindSpeedGustMPH,Humidity,HourlyPrecipIn,Conditions,Clouds,dailyrainin,SoftwareType,DateUTC
2013-06-19 00:02:00,58.8,47.0,29.99,SSW,203,0.0,0.0,65,0.00,,,0.00,WUHU216HW,2013-06-19 07:02:00,
2013-06-19 00:07:00,58.6,46.8,29.99,SSW,203,0.0,0.0,65,0.00,,,0.00,WUHU216HW,2013-06-19 07:07:00,
2013-06-19 00:12:00,58.6,47.2,29.99,SSW,203,0.0,0.0,66,0.00,,,0.00,WUHU216HW,2013-06-19 07:12:00,
2013-06-19 00:17:00,58.4,47.1,30.00,SSW,203,0.0,0.0,66,0.00,,,0.00,WUHU216HW,2013-06-19 07:17:00,
2013-06-19 00:22:00,58.4,47.1,30.00,SSW,203,0.0,0.0,66,0.00,,,0.00,WUHU216HW,2013-06-19 07:22:00,
2013-06-19 00:27:00,58.2,46.9,29.99,SSW,203,0.0,0.0,66,0.00,,,0.00,WUHU216HW,2013-06-19 07:27:00,
2013-06-19 00:32:00,58.2,46.9,29.99,SSW,203,0.0,0.0,66,0.00,,,0.00,WUHU216HW,2013-06-19 07:32:00,
2013-06-19 00:37:00,58.1,46.7,29.99,South,180,0.0,0.0,66,0.00,,,0.00,WUHU216HW,2013-06-19 07:37:00,
2013-06-19 00:42:00,57.9,46.9,30.00,South,180,0.0,0.0,67,0.00,,,0.00,WUHU216HW,2013-06-19 07:42:00,
2013-06-19 00:47:00,57.9,46.9,30.00,NW,315,0.0,0.0,67,0.00,,,0.00,WUHU216HW,2013-06-19 07:47:00,
2013-06-19 00:52:00,57.9,46.9,30.00,SSW,203,0.0,0.0,67,0.00,,,0.00,WUHU216HW,2013-06-19 07:52:00,
2013-06-19 00:57:00,57.7,46.8,29.99,SSW,203,0.0,0.0,67,0.00,,,0.00,WUHU216HW,2013-06-19 07:57:00,
2013-06-19 01:02:00,57.7,46.8,30.00,SSW,203,0.0,0.0,67,0.00,,,0.00,WUHU216HW,2013-06-19 08:02:00,
2013-06-19 01:07:00,57.5,46.6,30.00,SSE,158,0.0,0.0,67,0.00,,,0.00,WUHU216HW,2013-06-19 08:07:00,
2013-06-19 01:12:00,57.3,46.4,30.00,SE,135,0.0,0.0,67,0.00,,,0.00,WUHU216HW,2013-06-19 08:12:00,
2013-06-19 01:18:00,57.2,46.2,30.00,SE,135,0.0,0.0,67,0.00,,,0.00,WUHU216HW,2013-06-19 08:18:00,
2013-06-19 01:23:00,57.0,46.1,30.00,SE,135,0.0,0.0,67,0.00,,,0.00,WUHU216HW,2013-06-19 08:23:00,
2013-06-19 01:28:00,57.0,46.1,30.00,SE,135,0.0,0.0,67,0.00,,,0.00,WUHU216HW,2013-06-19 08:28:00,
2013-06-19 01:33:00,56.8,45.9,29.99,SE,135,0.0,0.0,67,0.00,,,0.00,WUHU216HW,2013-06-19 08:33:00,
2013-06-19 01:38:00,56.8,45.9,29.99,SSE,158,0.0,0.6,67,0.00,,,0.00,WUHU216HW,2013-06-19 08:38:00,
2013-06-19 01:43:00,56.4,45.7,29.99,SE,135,0.0,2.4,67,0.00,,,0.00,WUHU216HW,2013-06-19 08:43:00,
2013-06-19 01:49:00,56.4,45.6,29.99,SE,135,0.0,2.4,67,0.00,,,0.00,WUHU216HW,2013-06-19 08:49:00,
2013-06-19 01:54:00,56.4,46.0,29.98,SE,135,0.0,0.0,68,0.00,,,0.00,WUHU216HW,2013-06-19 08:54:00,
2013-06-19 01:59:00,56.4,46.0,29.99,ESE,113,0.0,0.0,68,0.00,,,0.00,WUHU216HW,2013-06-19 08:59:00,
2013-06-19 02:04:00,56.4,46.0,29.99,ESE,113,0.0,0.0,68,0.00,,,0.00,WUHU216HW,2013-06-19 09:04:00,
2013-06-19 02:09:00,56.3,45.8,29.99,ESE,113,0.0,0.0,68,0.00,,,0.00,WUHU216HW,2013-06-19 09:09:00,
2013-06-19 02:14:00,56.3,45.8,29.99,ESE,113,0.0,0.0,68,0.00,,,0.00,WUHU216HW,2013-06-19 09:14:00,
2013-06-19 02:19:00,56.3,45.8,29.98,SE,135,0.0,0.0,68,0.00,,,0.00,WUHU216HW,2013-06-19 09:19:00,
2013-06-19 02:24:00,56.3,45.8,29.98,SE,135,0.0,0.0,68,0.00,,,0.00,WUHU216HW,2013-06-19 09:24:00,
2013-06-19 02:29:00,56.1,45.6,29.98,ESE,113,0.0,0.0,68,0.00,,,0.00,WUHU216HW,2013-06-19 09:29:00,
2013-06-19 02:34:00,56.1,45.6,29.98,ESE,113,0.0,0.0,68,0.00,,,0.00,WUHU216HW,2013-06-19 09:34:00,
2013-06-19 02:39:00,55.9,45.5,29.98,ENE,68,0.0,0.0,68,0.00,,,0.00,WUHU216HW,2013-06-19 09:39:00,
2013-06-19 02:44:00,55.9,45.5,29.98,ENE,68,0.0,0.0,68,0.00,,,0.00,WUHU216HW,2013-06-19 09:44:00,
2013-06-19 02:49:00,55.9,45.5,29.99,ESE,113,0.0,0.0,68,0.00,,,0.00,WUHU216HW,2013-06-19 09:49:00,
2013-06-19 02:55:00,55.7,45.3,29.99,ESE,113,0.0,0.0,68,0.00,,,0.00,WUHU216HW,2013-06-19 09:55:00,
2013-06-19 03:00:00,55.7,45.3,29.99,ESE,113,0.0,0.0,68,0.00,,,0.00,WUHU216HW,2013-06-19 10:00:00,
2013-06-19 03:05:00,55.7,45.3,29.99,ESE,113,0.0,0.0,68,0.00,,,0.00,WUHU216HW,2013-06-19 10:05:00,
2013-06-19 03:10:00,55.7,45.3,29.99,ESE,113,0.0,0.0,68,0.00,,,0.00,WUHU216HW,2013-06-19 10:10:00,
2013-06-19 03:15:00,55.5,45.1,29.99,ESE,113,0.0,0.0,68,0.00,,,0.00,WUHU216HW,2013-06-19 10:15:00,
2013-06-19 03:20:00,55.5,45.1,29.99,ESE,113,0.0,0.0,68,0.00,,,0.00,WUHU216HW,2013-06-19 10:20:00,
2013-06-19 03:25:00,55.2,44.8,29.99,ESE,113,0.0,0.0,68,0.00,,,0.00,WUHU216HW,2013-06-19 10:25:00,
2013-06-19 03:30:00,55.2,44.8,29.99,ESE,113,0.0,0.0,68,0.00,,,0.00,WUHU216HW,2013-06-19 10:30:00,
2013-06-19 03:35:00,55.2,44.8,29.99,ESE,113,0.0,0.0,68,0.00,,,0.00,WUHU216HW,2013-06-19 10:35:00,
2013-06-19 03:40:00,55.2,44.8,29.99,ESE,113,0.0,0.0,68,0.00,,,0.00,WUHU216HW,2013-06-19 10:40:00,
2013-06-19 03:45:00,55.0,44.6,29.99,ESE,113,0.0,0.0,68,0.00,,,0.00,WUHU216HW,2013-06-19 10:45:00,
2013-06-19 03:50:00,55.0,45.0,29.99,ESE,113,0.0,0.0,69,0.00,,,0.00,WUHU216HW,2013-06-19 10:50:00,
2013-06-19 03:55:00,54.8,44.9,29.99,ESE,113,0.0,0.0,69,0.00,,,0.00,WUHU216HW,2013-06-19 10:55:00,
2013-06-19 04:00:00,54.8,44.9,29.99,ESE,113,0.0,0.0,69,0.00,,,0.00,WUHU216HW,2013-06-19 11:00:00,
2013-06-19 04:05:00,54.6,44.7,29.99,ESE,113,0.0,0.0,69,0.00,,,0.00,WUHU216HW,2013-06-19 11:05:00,
2013-06-19 04:10:00,54.5,44.5,29.99,ESE,113,0.0,0.0,69,0.00,,,0.00,WUHU216HW,2013-06-19 11:10:00,
2013-06-19 04:15:00,54.5,44.5,29.99,ESE,113,0.0,0.0,69,0.00,,,0.00,WUHU216HW,2013-06-19 11:15:00,
2013-06-19 04:20:00,54.5,44.5,29.98,ESE,113,0.0,0.0,69,0.00,,,0.00,WUHU216HW,2013-06-19 11:20:00,
2013-06-19 04:25:00,54.3,44.3,29.99,ESE,113,0.0,0.0,69,0.00,,,0.00,WUHU216HW,2013-06-19 11:25:00,
2013-06-19 04:30:00,54.3,44.3,29.98,ESE,113,0.0,0.0,69,0.00,,,0.00,WUHU216HW,2013-06-19 11:30:00,
2013-06-19 04:35:00,54.1,44.1,29.98,ESE,113,0.0,0.0,69,0.00,,,0.00,WUHU216HW,2013-06-19 11:35:00,
2013-06-19 04:40:00,54.1,44.6,29.98,ESE,113,0.0,0.0,70,0.00,,,0.00,WUHU216HW,2013-06-19 11:40:00,
2013-06-19 04:45:00,54.1,44.6,29.98,ESE,113,0.0,0.0,70,0.00,,,0.00,WUHU216HW,2013-06-19 11:45:00,
2013-06-19 04:50:00,54.1,44.6,29.99,ESE,113,0.0,0.0,70,0.00,,,0.00,WUHU216HW,2013-06-19 11:50:00,
2013-06-19 04:55:00,53.9,44.4,29.99,ESE,113,0.0,0.0,70,0.00,,,0.00,WUHU216HW,2013-06-19 11:55:00,
2013-06-19 05:00:00,53.9,44.4,29.99,ESE,113,0.0,0.0,70,0.00,,,0.00,WUHU216HW,2013-06-19 12:00:00,
2013-06-19 05:05:00,53.9,44.4,29.98,ESE,113,0.0,0.0,70,0.00,,,0.00,WUHU216HW,2013-06-19 12:05:00,
2013-06-19 05:10:00,53.9,44.4,29.99,ESE,113,0.0,0.0,70,0.00,,,0.00,WUHU216HW,2013-06-19 12:10:00,
2013-06-19 05:15:00,53.7,44.2,29.98,ESE,113,0.0,0.0,70,0.00,,,0.00,WUHU216HW,2013-06-19 12:15:00,
2013-06-19 05:20:00,53.7,44.2,29.98,ESE,113,0.0,0.0,70,0.00,,,0.00,WUHU216HW,2013-06-19 12:20:00,
2013-06-19 05:25:00,53.6,44.0,29.99,ESE,113,0.0,0.0,70,0.00,,,0.00,WUHU216HW,2013-06-19 12:25:00,
2013-06-19 05:30:00,53.4,43.8,29.99,ESE,113,0.0,0.0,70,0.00,,,0.00,WUHU216HW,2013-06-19 12:30:00,
2013-06-19 05:35:00,53.4,43.8,29.99,ESE,113,0.0,0.0,70,0.00,,,0.00,WUHU216HW,2013-06-19 12:35:00,
2013-06-19 05:40:00,53.4,43.8,29.98,ESE,113,0.0,0.0,70,0.00,,,0.00,WUHU216HW,2013-06-19 12:40:00,
2013-06-19 05:45:00,53.4,44.2,29.98,ESE,113,0.0,0.0,71,0.00,,,0.00,WUHU216HW,2013-06-19 12:45:00,
2013-06-19 05:50:00,53.2,44.0,29.98,ESE,113,0.0,0.0,71,0.00,,,0.00,WUHU216HW,2013-06-19 12:50:00,
2013-06-19 05:56:00,53.4,44.2,29.99,ESE,113,0.0,0.0,71,0.00,,,0.00,WUHU216HW,2013-06-19 12:56:00,
2013-06-19 06:01:00,53.2,44.0,29.99,ESE,113,0.0,0.0,71,0.00,,,0.00,WUHU216HW,2013-06-19 13:01:00,
2013-06-19 06:06:00,53.2,44.0,29.99,ESE,113,0.0,0.0,71,0.00,,,0.00,WUHU216HW,2013-06-19 13:06:00,
2013-06-19 06:11:00,53.2,44.0,30.00,ESE,113,0.0,0.0,71,0.00,,,0.00,WUHU216HW,2013-06-19 13:11:00,
2013-06-19 06:16:00,53.2,44.0,30.00,ESE,113,0.0,0.0,71,0.00,,,0.00,WUHU216HW,2013-06-19 13:16:00,
2013-06-19 06:21:00,53.2,44.0,29.99,ESE,113,0.0,0.0,71,0.00,,,0.00,WUHU216HW,2013-06-19 13:21:00,
2013-06-19 06:26:00,53.0,43.9,30.00,ESE,113,0.0,0.0,71,0.00,,,0.00,WUHU216HW,2013-06-19 13:26:00,
2013-06-19 06:31:00,52.8,43.7,30.00,ESE,113,0.0,0.0,71,0.00,,,0.00,WUHU216HW,2013-06-19 13:31:00,
2013-06-19 06:36:00,52.8,43.7,30.00,SSE,158,0.0,0.0,71,0.00,,,0.00,WUHU216HW,2013-06-19 13:36:00,
2013-06-19 06:41:00,52.8,44.1,30.01,East,90,0.0,0.0,72,0.00,,,0.00,WUHU216HW,2013-06-19 13:41:00,
2013-06-19 06:46:00,53.2,44.4,30.01,ESE,113,0.0,0.0,72,0.00,,,0.00,WUHU216HW,2013-06-19 13:46:00,
2013-06-19 06:51:00,53.2,44.4,30.01,ESE,113,0.0,0.0,72,0.00,,,0.00,WUHU216HW,2013-06-19 13:51:00,
2013-06-19 06:56:00,53.2,44.4,30.01,ESE,113,0.0,0.0,72,0.00,,,0.00,WUHU216HW,2013-06-19 13:56:00,
2013-06-19 07:01:00,53.4,44.6,30.01,SSW,203,0.0,0.0,72,0.00,,,0.00,WUHU216HW,2013-06-19 14:01:00,
2013-06-19 07:06:00,53.4,44.6,30.01,East,90,0.0,0.0,72,0.00,,,0.00,WUHU216HW,2013-06-19 14:06:00,
2013-06-19 07:11:00,53.4,44.6,30.01,ESE,113,0.0,0.0,72,0.00,,,0.00,WUHU216HW,2013-06-19 14:11:00,
2013-06-19 07:16:00,53.7,44.9,30.01,ESE,113,0.0,0.0,72,0.00,,,0.00,WUHU216HW,2013-06-19 14:16:00,
2013-06-19 07:21:00,53.7,44.9,30.01,East,90,0.0,0.0,72,0.00,,,0.00,WUHU216HW,2013-06-19 14:21:00,
2013-06-19 07:26:00,54.1,45.3,30.01,ESE,113,0.0,0.0,72,0.00,,,0.00,WUHU216HW,2013-06-19 14:26:00,
2013-06-19 07:31:00,54.5,45.6,30.01,ESE,113,0.0,0.0,72,0.00,,,0.00,WUHU216HW,2013-06-19 14:31:00,
2013-06-19 07:36:00,54.6,45.8,30.02,ESE,113,0.0,0.0,72,0.00,,,0.00,WUHU216HW,2013-06-19 14:36:00,
2013-06-19 07:41:00,55.0,46.1,30.02,ESE,113,0.0,0.0,72,0.00,,,0.00,WUHU216HW,2013-06-19 14:41:00,
2013-06-19 07:46:00,55.2,46.3,30.02,ESE,113,0.0,0.0,72,0.00,,,0.00,WUHU216HW,2013-06-19 14:46:00,
2013-06-19 07:51:00,55.5,46.7,30.02,ESE,113,0.0,0.0,72,0.00,,,0.00,WUHU216HW,2013-06-19 14:51:00,
2013-06-19 07:56:00,55.7,46.8,30.02,East,90,0.0,0.0,72,0.00,,,0.00,WUHU216HW,2013-06-19 14:56:00,
2013-06-19 08:01:00,56.3,47.0,30.02,SW,225,0.0,0.0,71,0.00,,,0.00,WUHU216HW,2013-06-19 15:01:00,
2013-06-19 08:06:00,56.4,46.8,30.02,SW,225,0.0,0.0,70,0.00,,,0.00,WUHU216HW,2013-06-19 15:06:00,
2013-06-19 08:11:00,56.8,46.7,30.02,SW,225,0.0,0.0,69,0.00,,,0.00,WUHU216HW,2013-06-19 15:11:00,
2013-06-19 08:16:00,57.0,46.9,30.02,SW,225,0.0,0.0,69,0.00,,,0.00,WUHU216HW,2013-06-19 15:16:00,
2013-06-19 08:21:00,57.3,46.8,30.02,SW,225,0.0,0.0,68,0.00,,,0.00,WUHU216HW,2013-06-19 15:21:00,
2013-06-19 08:26:00,57.5,47.0,30.02,SW,225,0.0,0.0,68,0.00,,,0.00,WUHU216HW,2013-06-19 15:26:00,
2013-06-19 08:31:00,57.9,46.9,30.02,West,270,0.0,0.0,67,0.00,,,0.00,WUHU216HW,2013-06-19 15:31:00,
2013-06-19 08:36:00,58.2,46.9,30.02,SSW,203,0.0,0.0,66,0.00,,,0.00,WUHU216HW,2013-06-19 15:36:00,
2013-06-19 08:41:00,58.6,46.8,30.02,West,270,0.0,0.0,65,0.00,,,0.00,WUHU216HW,2013-06-19 15:41:00,
2013-06-19 08:46:00,58.8,46.6,30.02,SSW,203,0.0,0.0,64,0.00,,,0.00,WUHU216HW,2013-06-19 15:46:00,
2013-06-19 08:52:00,58.8,46.6,30.02,ENE,68,0.0,0.0,64,0.00,,,0.00,WUHU216HW,2013-06-19 15:52:00,
2013-06-19 08:57:00,59.1,46.9,30.03,WNW,293,0.0,0.0,64,0.00,,,0.00,WUHU216HW,2013-06-19 15:57:00,
2013-06-19 09:02:00,59.5,46.9,30.03,SSE,158,0.0,0.0,63,0.00,,,0.00,WUHU216HW,2013-06-19 16:02:00,
2013-06-19 09:07:00,59.7,46.6,30.03,North,0,0.0,0.0,62,0.00,,,0.00,WUHU216HW,2013-06-19 16:07:00,
2013-06-19 09:12:00,59.9,46.4,30.03,SW,225,0.0,0.0,61,0.00,,,0.00,WUHU216HW,2013-06-19 16:12:00,
2013-06-19 09:17:00,60.0,46.6,30.03,SW,225,0.0,0.0,61,0.00,,,0.00,WUHU216HW,2013-06-19 16:17:00,
2013-06-19 09:22:00,60.4,46.5,30.03,NNW,338,0.0,0.0,60,0.00,,,0.00,WUHU216HW,2013-06-19 16:22:00,
2013-06-19 09:27:00,60.6,47.1,30.03,West,270,0.0,0.0,61,0.00,,,0.00,WUHU216HW,2013-06-19 16:27:00,
2013-06-19 09:32:00,60.6,46.7,30.03,NNE,23,0.0,0.0,60,0.00,,,0.00,WUHU216HW,2013-06-19 16:32:00,
2013-06-19 09:37:00,61.1,47.2,30.03,ESE,113,0.0,0.0,60,0.00,,,0.00,WUHU216HW,2013-06-19 16:37:00,
2013-06-19 09:42:00,61.3,47.4,30.03,WNW,293,0.0,0.0,60,0.00,,,0.00,WUHU216HW,2013-06-19 16:42:00,
2013-06-19 09:47:00,61.5,47.1,30.03,SW,225,0.0,0.0,59,0.00,,,0.00,WUHU216HW,2013-06-19 16:47:00,
2013-06-19 09:52:00,61.7,46.7,30.03,NW,315,0.0,0.0,58,0.00,,,0.00,WUHU216HW,2013-06-19 16:52:00,
2013-06-19 09:57:00,61.7,47.2,30.03,WSW,248,0.0,0.0,59,0.00,,,0.00,WUHU216HW,2013-06-19 16:57:00,
2013-06-19 10:02:00,62.2,47.7,30.03,ESE,113,0.0,0.0,59,0.00,,,0.00,WUHU216HW,2013-06-19 17:02:00,
2013-06-19 10:07:00,62.6,47.5,30.03,ESE,113,0.0,0.0,58,0.00,,,0.00,WUHU216HW,2013-06-19 17:07:00,
2013-06-19 10:12:00,63.1,48.0,30.03,WSW,248,0.0,0.0,58,0.00,,,0.00,WUHU216HW,2013-06-19 17:12:00,
2013-06-19 10:17:00,63.5,47.9,30.03,NW,315,0.0,0.0,57,0.00,,,0.00,WUHU216HW,2013-06-19 17:17:00,
2013-06-19 10:22:00,63.8,47.5,30.03,West,270,0.0,0.0,56,0.00,,,0.00,WUHU216HW,2013-06-19 17:22:00,
2013-06-19 10:27:00,64.2,48.0,30.03,WSW,248,0.0,0.0,56,0.00,,,0.00,WUHU216HW,2013-06-19 17:27:00,
2013-06-19 10:32:00,64.5,48.4,30.03,ENE,68,0.0,0.0,56,0.00,,,0.00,WUHU216HW,2013-06-19 17:32:00,
2013-06-19 10:37:00,64.9,48.7,30.03,SW,225,0.0,0.0,56,0.00,,,0.00,WUHU216HW,2013-06-19 17:37:00,
2013-06-19 10:42:00,65.1,49.4,30.03,SW,225,0.0,3.1,57,0.00,,,0.00,WUHU216HW,2013-06-19 17:42:00,
2013-06-19 10:47:00,65.1,48.9,30.03,SW,225,6.7,6.7,56,0.00,,,0.00,WUHU216HW,2013-06-19 17:47:00,
2013-06-19 10:52:00,65.3,49.1,30.03,SW,225,7.1,7.1,56,0.00,,,0.00,WUHU216HW,2013-06-19 17:52:00,
2013-06-19 10:57:00,65.3,49.1,30.03,SW,225,0.0,7.1,56,0.00,,,0.00,WUHU216HW,2013-06-19 17:57:00,
2013-06-19 11:02:00,65.4,49.3,30.03,SW,225,4.0,7.1,56,0.00,,,0.00,WUHU216HW,2013-06-19 18:02:00,
2013-06-19 11:07:00,65.8,49.1,30.03,SW,225,0.0,4.0,55,0.00,,,0.00,WUHU216HW,2013-06-19 18:07:00,
2013-06-19 11:12:00,65.8,49.1,30.03,West,270,0.0,0.6,55,0.00,,,0.00,WUHU216HW,2013-06-19 18:12:00,
2013-06-19 11:17:00,66.0,49.3,30.04,SSW,203,0.0,2.4,55,0.00,,,0.00,WUHU216HW,2013-06-19 18:17:00,
2013-06-19 11:22:00,66.2,49.0,30.04,SSW,203,0.0,2.4,54,0.00,,,0.00,WUHU216HW,2013-06-19 18:22:00,
2013-06-19 11:27:00,66.3,49.2,30.04,SSW,203,0.0,3.5,54,0.00,,,0.00,WUHU216HW,2013-06-19 18:27:00,
2013-06-19 11:32:00,66.7,49.5,30.03,SW,225,2.6,3.5,54,0.00,,,0.00,WUHU216HW,2013-06-19 18:32:00,
2013-06-19 11:37:00,67.2,49.5,30.03,SSW,203,2.2,2.6,53,0.00,,,0.00,WUHU216HW,2013-06-19 18:37:00,
2013-06-19 11:42:00,67.6,49.8,30.04,SSW,203,2.4,2.4,53,0.00,,,0.00,WUHU216HW,2013-06-19 18:42:00,
2013-06-19 11:47:00,67.8,49.5,30.04,SW,225,3.3,6.0,52,0.00,,,0.00,WUHU216HW,2013-06-19 18:47:00,
2013-06-19 11:52:00,68.1,49.8,30.04,West,270,0.0,6.7,52,0.00,,,0.00,WUHU216HW,2013-06-19 18:52:00,
2013-06-19 11:57:00,68.1,49.3,30.04,SSW,203,3.3,6.7,51,0.00,,,0.00,WUHU216HW,2013-06-19 18:57:00,
2013-06-19 12:02:00,68.1,49.3,30.04,SSW,203,0.0,5.1,51,0.00,,,0.00,WUHU216HW,2013-06-19 19:02:00,
2013-06-19 12:07:00,68.3,50.0,30.04,South,180,0.0,5.3,52,0.00,,,0.00,WUHU216HW,2013-06-19 19:07:00,
2013-06-19 12:12:00,68.7,50.3,30.04,SW,225,0.4,5.3,52,0.00,,,0.00,WUHU216HW,2013-06-19 19:12:00,
2013-06-19 12:17:00,69.2,50.8,30.03,SW,225,0.0,3.8,52,0.00,,,0.00,WUHU216HW,2013-06-19 19:17:00,
2013-06-19 12:22:00,69.9,51.0,30.04,SW,225,0.0,3.8,51,0.00,,,0.00,WUHU216HW,2013-06-19 19:22:00,
2013-06-19 12:27:00,70.1,50.6,30.04,SSW,203,3.3,3.3,50,0.00,,,0.00,WUHU216HW,2013-06-19 19:27:00,
2013-06-19 12:32:00,70.1,50.6,30.04,South,180,0.6,3.3,50,0.00,,,0.00,WUHU216HW,2013-06-19 19:32:00,
2013-06-19 12:37:00,70.3,50.8,30.04,SW,225,2.9,5.1,50,0.00,,,0.00,WUHU216HW,2013-06-19 19:37:00,
2013-06-19 12:42:00,70.5,50.4,30.04,SE,135,0.0,5.1,49,0.00,,,0.00,WUHU216HW,2013-06-19 19:42:00,
2013-06-19 12:47:00,70.8,50.7,30.04,West,270,0.0,1.3,49,0.00,,,0.00,WUHU216HW,2013-06-19 19:47:00,
2013-06-19 12:53:00,70.8,50.1,30.04,SW,225,8.7,8.7,48,0.00,,,0.00,WUHU216HW,2013-06-19 19:53:00,
2013-06-19 12:58:00,70.8,50.1,30.04,SW,225,5.1,8.7,48,0.00,,,0.00,WUHU216HW,2013-06-19 19:58:00,
2013-06-19 13:03:00,71.2,50.4,30.04,SW,225,4.6,5.1,48,0.00,,,0.00,WUHU216HW,2013-06-19 20:03:00,
2013-06-19 13:08:00,70.8,50.1,30.04,WSW,248,0.0,6.2,48,0.00,,,0.00,WUHU216HW,2013-06-19 20:08:00,
2013-06-19 13:13:00,70.5,49.3,30.04,SW,225,6.4,6.4,47,0.00,,,0.00,WUHU216HW,2013-06-19 20:13:00,
2013-06-19 13:18:00,70.5,49.8,30.04,SW,225,4.9,6.4,48,0.00,,,0.00,WUHU216HW,2013-06-19 20:18:00,
2013-06-19 13:23:00,70.7,49.9,30.03,SSW,203,2.9,6.4,48,0.00,,,0.00,WUHU216HW,2013-06-19 20:23:00,
2013-06-19 13:28:00,71.0,49.7,30.03,SSW,203,0.0,4.9,47,0.00,,,0.00,WUHU216HW,2013-06-19 20:28:00,
2013-06-19 13:33:00,71.4,50.0,30.03,South,180,4.0,4.0,47,0.00,,,0.00,WUHU216HW,2013-06-19 20:33:00,
2013-06-19 13:38:00,71.7,50.3,30.03,ESE,113,2.4,5.8,47,0.00,,,0.00,WUHU216HW,2013-06-19 20:38:00,
2013-06-19 13:43:00,71.9,49.9,30.03,SSW,203,6.0,6.0,46,0.00,,,0.00,WUHU216HW,2013-06-19 20:43:00,
2013-06-19 13:48:00,72.1,50.0,30.03,WSW,248,7.6,7.6,46,0.00,,,0.00,WUHU216HW,2013-06-19 20:48:00,
2013-06-19 13:53:00,72.3,50.2,30.03,SSW,203,2.2,7.6,46,0.00,,,0.00,WUHU216HW,2013-06-19 20:53:00,
2013-06-19 13:58:00,72.6,49.9,30.03,SSW,203,0.0,7.6,46,0.00,,,0.00,WUHU216HW,2013-06-19 20:58:00,
2013-06-19 14:03:00,72.6,49.9,30.03,SSW,203,3.8,5.5,45,0.00,,,0.00,WUHU216HW,2013-06-19 21:03:00,
2013-06-19 14:08:00,72.6,50.5,30.03,SW,225,4.2,4.2,46,0.00,,,0.00,WUHU216HW,2013-06-19 21:08:00,
2013-06-19 14:13:00,72.8,49.9,30.03,SW,225,1.5,10.7,45,0.00,,,0.00,WUHU216HW,2013-06-19 21:13:00,
2013-06-19 14:18:00,72.8,50.1,30.02,South,180,0.8,10.7,45,0.00,,,0.00,WUHU216HW,2013-06-19 21:18:00,
2013-06-19 14:23:00,72.6,49.9,30.02,SE,135,2.0,2.6,45,0.00,,,0.00,WUHU216HW,2013-06-19 21:23:00,
2013-06-19 14:28:00,73.0,50.9,30.02,SE,135,8.0,8.0,46,0.00,,,0.00,WUHU216HW,2013-06-19 21:28:00,
2013-06-19 14:33:00,73.5,50.7,30.02,South,180,3.5,8.0,45,0.00,,,0.00,WUHU216HW,2013-06-19 21:33:00,
2013-06-19 14:38:00,73.9,51.1,30.02,South,180,4.4,8.0,45,0.00,,,0.00,WUHU216HW,2013-06-19 21:38:00,
2013-06-19 14:43:00,73.7,50.3,30.02,SE,135,2.4,10.0,44,0.00,,,0.00,WUHU216HW,2013-06-19 21:43:00,
2013-06-19 14:48:00,73.9,50.5,30.02,SSW,203,4.2,10.0,44,0.00,,,0.00,WUHU216HW,2013-06-19 21:48:00,
2013-06-19 14:53:00,73.5,50.7,30.02,SSE,158,2.4,7.1,45,0.00,,,0.00,WUHU216HW,2013-06-19 21:53:00,
2013-06-19 14:58:00,73.9,51.1,30.02,South,180,4.9,11.6,45,0.00,,,0.00,WUHU216HW,2013-06-19 21:58:00,
2013-06-19 15:03:00,74.1,51.3,30.02,SSE,158,3.5,11.6,45,0.00,,,0.00,WUHU216HW,2013-06-19 22:03:00,
2013-06-19 15:08:00,74.3,50.8,30.02,WSW,248,5.1,6.4,44,0.00,,,0.00,WUHU216HW,2013-06-19 22:08:00,
2013-06-19 15:13:00,74.4,52.2,30.01,South,180,6.0,6.0,46,0.00,,,0.00,WUHU216HW,2013-06-19 22:13:00,
2013-06-19 15:18:00,74.8,51.9,30.01,SSW,203,0.0,6.0,45,0.00,,,0.00,WUHU216HW,2013-06-19 22:18:00,
2013-06-19 15:23:00,75.0,52.1,30.01,SE,135,1.7,6.0,45,0.00,,,0.00,WUHU216HW,2013-06-19 22:23:00,
2013-06-19 15:28:00,75.3,51.8,30.01,South,180,1.3,3.3,44,0.00,,,0.00,WUHU216HW,2013-06-19 22:28:00,
2013-06-19 15:33:00,75.9,51.7,30.01,South,180,6.7,6.7,43,0.00,,,0.00,WUHU216HW,2013-06-19 22:33:00,
2013-06-19 15:38:00,75.9,51.7,30.01,SSE,158,4.6,6.7,43,0.00,,,0.00,WUHU216HW,2013-06-19 22:38:00,
2013-06-19 15:43:00,76.2,52.0,30.01,SE,135,4.0,4.6,43,0.00,,,0.00,WUHU216HW,2013-06-19 22:43:00,
2013-06-19 15:48:00,76.4,51.6,30.01,WSW,248,0.6,4.0,42,0.00,,,0.00,WUHU216HW,2013-06-19 22:48:00,
2013-06-19 15:53:00,76.2,51.4,30.01,SSW,203,0.0,4.2,42,0.00,,,0.00,WUHU216HW,2013-06-19 22:53:00,
2013-06-19 15:58:00,76.2,50.8,30.01,SSW,203,0.0,6.4,41,0.00,,,0.00,WUHU216HW,2013-06-19 22:58:00,
2013-06-19 16:03:00,76.2,50.2,30.01,SW,225,4.4,6.4,40,0.00,,,0.00,WUHU216HW,2013-06-19 23:03:00,
2013-06-19 16:08:00,76.4,49.6,30.00,West,270,0.0,4.6,39,0.00,,,0.00,WUHU216HW,2013-06-19 23:08:00,
2013-06-19 16:13:00,76.8,49.9,30.00,WNW,293,0.0,5.3,39,0.00,,,0.00,WUHU216HW,2013-06-19 23:13:00,
2013-06-19 16:18:00,77.0,50.1,30.00,WSW,248,0.0,5.3,39,0.00,,,0.00,WUHU216HW,2013-06-19 23:18:00,
2013-06-19 16:23:00,77.0,50.1,30.00,West,270,0.0,0.0,39,0.00,,,0.00,WUHU216HW,2013-06-19 23:23:00,
2013-06-19 16:28:00,77.1,49.5,30.00,WSW,248,0.0,6.0,38,0.00,,,0.00,WUHU216HW,2013-06-19 23:28:00,
2013-06-19 16:33:00,77.1,49.5,30.00,SW,225,0.0,6.0,38,0.00,,,0.00,WUHU216HW,2013-06-19 23:33:00,
2013-06-19 16:38:00,77.3,49.6,30.00,SW,225,0.0,1.1,38,0.00,,,0.00,WUHU216HW,2013-06-19 23:38:00,
2013-06-19 16:43:00,77.7,49.2,30.00,NW,315,0.0,3.5,37,0.00,,,0.00,WUHU216HW,2013-06-19 23:43:00,
2013-06-19 16:48:00,77.7,49.2,30.00,West,270,0.0,3.5,37,0.00,,,0.00,WUHU216HW,2013-06-19 23:48:00,
2013-06-19 16:53:00,77.5,49.2,30.00,North,0,0.0,0.0,37,0.00,,,0.00,WUHU216HW,2013-06-19 23:53:00,
2013-06-19 16:58:00,77.1,49.5,30.00,NNW,338,0.0,1.5,38,0.00,,,0.00,WUHU216HW,2013-06-19 23:58:00,
2013-06-19 17:04:00,76.8,49.2,30.00,WNW,293,0.0,1.5,38,0.00,,,0.00,WUHU216HW,2013-06-20 00:04:00,
2013-06-19 17:09:00,76.8,49.2,30.00,WNW,293,0.0,0.0,38,0.00,,,0.00,WUHU216HW,2013-06-20 00:09:00,
2013-06-19 17:14:00,76.6,49.8,30.00,North,0,0.0,0.0,39,0.00,,,0.00,WUHU216HW,2013-06-20 00:14:00,
2013-06-19 17:19:00,76.6,49.8,30.00,WNW,293,0.0,0.0,39,0.00,,,0.00,WUHU216HW,2013-06-20 00:19:00,
2013-06-19 17:24:00,76.4,48.9,30.00,NE,45,0.0,0.0,38,0.00,,,0.00,WUHU216HW,2013-06-20 00:24:00,
2013-06-19 17:29:00,76.2,49.4,30.00,NNW,338,0.0,0.0,39,0.00,,,0.00,WUHU216HW,2013-06-20 00:29:00,
2013-06-19 17:34:00,76.1,49.3,30.00,SW,225,1.5,1.5,39,0.00,,,0.00,WUHU216HW,2013-06-20 00:34:00,
2013-06-19 17:39:00,75.9,49.1,30.00,West,270,0.0,1.5,39,0.00,,,0.00,WUHU216HW,2013-06-20 00:39:00,
2013-06-19 17:44:00,75.9,49.1,30.00,West,270,0.0,1.5,39,0.00,,,0.00,WUHU216HW,2013-06-20 00:44:00,
2013-06-19 17:49:00,75.7,49.0,30.00,NW,315,0.0,0.0,39,0.00,,,0.00,WUHU216HW,2013-06-20 00:49:00,
2013-06-19 17:54:00,75.3,48.6,30.00,North,0,0.0,0.0,39,0.00,,,0.00,WUHU216HW,2013-06-20 00:54:00,
2013-06-19 17:59:00,75.0,49.1,30.00,NW,315,0.0,0.0,40,0.00,,,0.00,WUHU216HW,2013-06-20 00:59:00,
2013-06-19 18:04:00,75.0,49.1,29.99,WNW,293,0.0,0.0,40,0.00,,,0.00,WUHU216HW,2013-06-20 01:04:00,
2013-06-19 18:09:00,75.0,49.1,30.00,North,0,0.0,0.0,40,0.00,,,0.00,WUHU216HW,2013-06-20 01:09:00,
2013-06-19 18:14:00,74.8,48.9,30.00,WSW,248,0.0,0.0,40,0.00,,,0.00,WUHU216HW,2013-06-20 01:14:00,
2013-06-19 18:19:00,74.8,49.5,30.00,SSW,203,0.0,0.0,41,0.00,,,0.00,WUHU216HW,2013-06-20 01:19:00,
2013-06-19 18:24:00,74.8,48.9,30.00,North,0,0.0,0.0,40,0.00,,,0.00,WUHU216HW,2013-06-20 01:24:00,
2013-06-19 18:29:00,74.4,48.6,30.00,NNE,23,0.0,0.0,40,0.00,,,0.00,WUHU216HW,2013-06-20 01:29:00,
2013-06-19 18:34:00,74.1,48.9,30.00,South,180,0.0,0.0,41,0.00,,,0.00,WUHU216HW,2013-06-20 01:34:00,
2013-06-19 18:39:00,73.7,48.5,29.99,West,270,0.0,0.0,41,0.00,,,0.00,WUHU216HW,2013-06-20 01:39:00,
2013-06-19 18:44:00,73.4,48.8,30.00,SSW,203,3.5,3.5,42,0.00,,,0.00,WUHU216HW,2013-06-20 01:44:00,
2013-06-19 18:49:00,72.6,48.2,30.00,West,270,0.0,3.5,42,0.00,,,0.00,WUHU216HW,2013-06-20 01:49:00,
2013-06-19 18:54:00,72.3,47.8,30.00,WNW,293,0.0,0.0,42,0.00,,,0.00,WUHU216HW,2013-06-20 01:54:00,
2013-06-19 18:59:00,71.9,48.1,30.00,WNW,293,0.0,0.0,43,0.00,,,0.00,WUHU216HW,2013-06-20 01:59:00,
2013-06-19 19:04:00,71.7,47.9,30.00,WSW,248,0.0,0.0,43,0.00,,,0.00,WUHU216HW,2013-06-20 02:04:00,
2013-06-19 19:09:00,71.4,47.6,30.00,North,0,0.0,0.0,43,0.00,,,0.00,WUHU216HW,2013-06-20 02:09:00,
2013-06-19 19:14:00,71.2,48.0,30.00,NE,45,0.0,0.0,44,0.00,,,0.00,WUHU216HW,2013-06-20 02:14:00,
2013-06-19 19:19:00,70.5,47.4,30.00,West,270,0.0,1.5,44,0.00,,,0.00,WUHU216HW,2013-06-20 02:19:00,
2013-06-19 19:24:00,70.1,47.1,30.01,North,0,0.0,1.5,44,0.00,,,0.00,WUHU216HW,2013-06-20 02:24:00,
2013-06-19 19:29:00,69.8,47.3,30.01,SSE,158,0.0,0.0,45,0.00,,,0.00,WUHU216HW,2013-06-20 02:29:00,
2013-06-19 19:34:00,69.4,47.0,30.01,NE,45,0.0,0.0,45,0.00,,,0.00,WUHU216HW,2013-06-20 02:34:00,
2013-06-19 19:39:00,69.4,47.0,30.01,WNW,293,0.0,0.0,45,0.00,,,0.00,WUHU216HW,2013-06-20 02:39:00,
2013-06-19 19:44:00,68.9,46.7,30.01,WSW,248,0.0,0.0,45,0.00,,,0.00,WUHU216HW,2013-06-20 02:44:00,
2013-06-19 19:49:00,68.5,46.2,30.01,WNW,293,0.0,0.0,45,0.00,,,0.00,WUHU216HW,2013-06-20 02:49:00,
2013-06-19 19:54:00,68.1,45.9,30.01,West,270,0.0,0.0,45,0.00,,,0.00,WUHU216HW,2013-06-20 02:54:00,
2013-06-19 19:59:00,67.8,46.2,30.01,SSW,203,0.0,0.0,46,0.00,,,0.00,WUHU216HW,2013-06-20 02:59:00,
2013-06-19 20:04:00,67.6,46.6,30.01,North,0,0.0,0.0,47,0.00,,,0.00,WUHU216HW,2013-06-20 03:04:00,
2013-06-19 20:09:00,67.2,46.3,30.01,WNW,293,0.0,0.0,47,0.00,,,0.00,WUHU216HW,2013-06-20 03:09:00,
2013-06-19 20:14:00,66.5,46.4,30.01,NW,315,0.0,0.0,48,0.00,,,0.00,WUHU216HW,2013-06-20 03:14:00,
2013-06-19 20:19:00,66.0,45.7,30.01,East,90,0.0,0.0,48,0.00,,,0.00,WUHU216HW,2013-06-20 03:19:00,
2013-06-19 20:24:00,66.0,46.3,30.02,NNE,23,0.0,0.0,49,0.00,,,0.00,WUHU216HW,2013-06-20 03:24:00,
2013-06-19 20:29:00,65.3,45.6,30.01,WSW,248,0.0,0.0,49,0.00,,,0.00,WUHU216HW,2013-06-20 03:29:00,
2013-06-19 20:34:00,64.9,45.2,30.01,NNE,23,0.0,0.0,49,0.00,,,0.00,WUHU216HW,2013-06-20 03:34:00,
2013-06-19 20:39:00,64.7,45.6,30.01,ENE,68,0.0,0.0,50,0.00,,,0.00,WUHU216HW,2013-06-20 03:39:00,
2013-06-19 20:44:00,64.7,45.8,30.01,NW,315,0.0,1.3,50,0.00,,,0.00,WUHU216HW,2013-06-20 03:44:00,
2013-06-19 20:49:00,64.7,45.6,30.01,NNW,338,0.0,1.3,50,0.00,,,0.00,WUHU216HW,2013-06-20 03:49:00,
2013-06-19 20:54:00,64.7,45.6,30.00,North,0,0.0,0.0,50,0.00,,,0.00,WUHU216HW,2013-06-20 03:54:00,
2013-06-19 20:59:00,64.7,46.1,30.00,ENE,68,0.0,0.0,51,0.00,,,0.00,WUHU216HW,2013-06-20 03:59:00,
2013-06-19 21:01:00,64.7,46.1,30.01,ENE,68,0.0,0.0,51,0.00,,,0.00,WUHU216HW,2013-06-20 04:01:00,
2013-06-19 21:02:00,64.7,46.1,30.01,NNE,23,0.0,0.0,51,0.00,,,0.00,WUHU216HW,2013-06-20 04:02:00,
2013-06-19 21:07:00,64.9,46.3,30.01,NE,45,0.0,0.0,51,0.00,,,0.00,WUHU216HW,2013-06-20 04:07:00,
2013-06-19 21:12:00,65.1,46.5,30.01,NNE,23,0.0,0.0,51,0.00,,,0.00,WUHU216HW,2013-06-20 04:12:00,
2013-06-19 21:18:00,65.3,46.7,30.01,WSW,248,2.6,2.6,51,0.00,,,0.00,WUHU216HW,2013-06-20 04:18:00,
2013-06-19 21:23:00,65.4,46.8,30.01,WSW,248,0.0,2.6,51,0.00,,,0.00,WUHU216HW,2013-06-20 04:23:00,
2013-06-19 21:28:00,65.4,46.8,30.01,SW,225,0.0,2.6,51,0.00,,,0.00,WUHU216HW,2013-06-20 04:28:00,
2013-06-19 21:33:00,65.8,47.2,30.01,NNW,338,0.0,0.0,51,0.00,,,0.00,WUHU216HW,2013-06-20 04:33:00,
2013-06-19 21:38:00,65.8,47.2,30.01,NNW,338,0.0,0.0,51,0.00,,,0.00,WUHU216HW,2013-06-20 04:38:00,
2013-06-19 21:43:00,65.6,47.0,30.01,NNW,338,0.0,0.0,51,0.00,,,0.00,WUHU216HW,2013-06-20 04:43:00,
2013-06-19 21:48:00,65.8,47.7,30.01,WNW,293,0.0,0.0,52,0.00,,,0.00,WUHU216HW,2013-06-20 04:48:00,
2013-06-19 21:53:00,66.0,47.9,30.01,NW,315,0.0,0.0,52,0.00,,,0.00,WUHU216HW,2013-06-20 04:53:00,
2013-06-19 21:58:00,66.2,48.0,30.01,NW,315,0.0,0.0,52,0.00,,,0.00,WUHU216HW,2013-06-20 04:58:00,
2013-06-19 22:03:00,66.3,48.2,30.01,NW,315,0.0,0.0,52,0.00,,,0.00,WUHU216HW,2013-06-20 05:03:00,
2013-06-19 22:08:00,66.9,48.2,30.01,NW,315,0.0,0.0,51,0.00,,,0.00,WUHU216HW,2013-06-20 05:08:00,
2013-06-19 22:13:00,66.7,48.0,30.01,NW,315,0.0,0.0,51,0.00,,,0.00,WUHU216HW,2013-06-20 05:13:00,
2013-06-19 22:18:00,65.6,47.4,30.01,NW,315,0.0,0.0,51,0.00,,,0.00,WUHU216HW,2013-06-20 05:18:00,
2013-06-19 22:23:00,65.1,47.0,30.01,NW,315,0.0,0.0,52,0.00,,,0.00,WUHU216HW,2013-06-20 05:23:00,
2013-06-19 22:28:00,64.7,46.6,30.01,NW,315,0.0,0.0,52,0.00,,,0.00,WUHU216HW,2013-06-20 05:28:00,
2013-06-19 22:33:00,64.0,46.7,30.01,NW,315,0.0,0.0,54,0.00,,,0.00,WUHU216HW,2013-06-20 05:33:00,
2013-06-19 22:38:00,63.5,46.4,30.01,NW,315,0.0,0.0,54,0.00,,,0.00,WUHU216HW,2013-06-20 05:38:00,
2013-06-19 22:43:00,63.1,46.1,30.01,NW,315,0.0,0.0,54,0.00,,,0.00,WUHU216HW,2013-06-20 05:43:00,
2013-06-19 22:48:00,62.7,45.9,30.01,NW,315,0.0,0.0,54,0.00,,,0.00,WUHU216HW,2013-06-20 05:48:00,
2013-06-19 22:53:00,62.6,45.6,30.01,NW,315,0.0,0.0,54,0.00,,,0.00,WUHU216HW,2013-06-20 05:53:00,
2013-06-19 22:58:00,62.4,45.9,30.01,NW,315,0.0,0.0,55,0.00,,,0.00,WUHU216HW,2013-06-20 05:58:00,
2013-06-19 23:03:00,62.2,45.8,30.01,NW,315,0.0,0.0,55,0.00,,,0.00,WUHU216HW,2013-06-20 06:03:00,
2013-06-19 23:09:00,61.8,45.9,30.01,NW,315,0.0,0.0,56,0.00,,,0.00,WUHU216HW,2013-06-20 06:09:00,
2013-06-19 23:14:00,61.8,45.9,30.01,NW,315,0.0,0.0,56,0.00,,,0.00,WUHU216HW,2013-06-20 06:14:00,
2013-06-19 23:19:00,61.5,45.6,30.01,NW,315,0.0,0.0,56,0.00,,,0.00,WUHU216HW,2013-06-20 06:19:00,
2013-06-19 23:24:00,61.3,45.9,30.01,NW,315,0.0,0.0,57,0.00,,,0.00,WUHU216HW,2013-06-20 06:24:00,
2013-06-19 23:29:00,61.3,45.9,30.01,NW,315,0.0,0.0,57,0.00,,,0.00,WUHU216HW,2013-06-20 06:29:00,
2013-06-19 23:34:00,61.1,45.8,30.01,NW,315,0.0,0.0,57,0.00,,,0.00,WUHU216HW,2013-06-20 06:34:00,
2013-06-19 23:39:00,60.9,45.6,30.01,NW,315,0.0,0.0,57,0.00,,,0.00,WUHU216HW,2013-06-20 06:39:00,
2013-06-19 23:44:00,60.9,46.1,30.00,NW,315,0.0,0.0,58,0.00,,,0.00,WUHU216HW,2013-06-20 06:44:00,
2013-06-19 23:49:00,60.6,45.7,30.00,NW,315,0.0,0.0,58,0.00,,,0.00,WUHU216HW,2013-06-20 06:49:00,
2013-06-19 23:54:00,60.6,45.7,30.01,NW,315,0.0,0.0,58,0.00,,,0.00,WUHU216HW,2013-06-20 06:54:00,
2013-06-19 23:59:00,60.4,45.6,30.01,NW,315,0.0,0.0,58,0.00,,,0.00,WUHU216HW,2013-06-20 06:59:00,